sensor_id;sensor_type;location;lat;lon;timestamp;P1;durP1;ratioP1;P2;durP2;ratioP2
22318;SDS011;11327;52.334;9.506;2022-12-05T00:01:54;76.12;;;29.77;;
22318;SDS011;11327;52.334;9.506;2022-12-05T00:05:15;70.72;;;30.12;;
22318;SDS011;11327;52.334;9.506;2022-12-05T00:08:36;71.17;;;30.82;;
22318;SDS011;11327;52.334;9.506;2022-12-05T00:11:57;70.42;;;29.45;;
22318;SDS011;11327;52.334;9.506;2022-12-05T00:15:18;73.70;;;30.45;;
22318;SDS011;11327;52.334;9.506;2022-12-05T00:18:40;70.62;;;30.52;;
22318;SDS011;11327;52.334;9.506;2022-12-05T00:22:01;71.70;;;31.00;;
22318;SDS011;11327;52.334;9.506;2022-12-05T00:25:22;67.40;;;28.67;;
22318;SDS011;11327;52.334;9.506;2022-12-05T00:28:43;69.97;;;28.42;;
22318;SDS011;11327;52.334;9.506;2022-12-05T00:32:04;70.80;;;30.57;;
22318;SDS011;11327;52.334;9.506;2022-12-05T00:35:25;66.45;;;28.42;;
22318;SDS011;11327;52.334;9.506;2022-12-05T00:38:46;66.80;;;29.50;;
22318;SDS011;11327;52.334;9.506;2022-12-05T00:42:07;67.17;;;29.65;;
22318;SDS011;11327;52.334;9.506;2022-12-05T00:45:28;68.60;;;28.73;;
22318;SDS011;11327;52.334;9.506;2022-12-05T00:48:51;66.50;;;28.25;;
22318;SDS011;11327;52.334;9.506;2022-12-05T00:52:13;70.92;;;28.95;;
22318;SDS011;11327;52.334;9.506;2022-12-05T00:55:35;65.67;;;28.75;;
22318;SDS011;11327;52.334;9.506;2022-12-05T00:58:57;70.40;;;28.92;;
22318;SDS011;11327;52.334;9.506;2022-12-05T01:02:18;72.72;;;28.42;;
22318;SDS011;11327;52.334;9.506;2022-12-05T01:05:39;70.20;;;28.87;;
22318;SDS011;11327;52.334;9.506;2022-12-05T01:09:00;70.67;;;28.98;;
22318;SDS011;11327;52.334;9.506;2022-12-05T01:12:22;72.58;;;28.67;;
22318;SDS011;11327;52.334;9.506;2022-12-05T01:15:43;68.57;;;29.00;;
22318;SDS011;11327;52.334;9.506;2022-12-05T01:19:06;69.10;;;28.85;;
22318;SDS011;11327;52.334;9.506;2022-12-05T01:22:28;64.12;;;28.10;;
22318;SDS011;11327;52.334;9.506;2022-12-05T01:25:50;68.25;;;28.55;;
22318;SDS011;11327;52.334;9.506;2022-12-05T01:29:13;65.60;;;28.92;;
22318;SDS011;11327;52.334;9.506;2022-12-05T01:32:35;68.85;;;28.95;;
22318;SDS011;11327;52.334;9.506;2022-12-05T01:35:56;64.85;;;27.30;;
22318;SDS011;11327;52.334;9.506;2022-12-05T01:39:17;66.87;;;28.85;;
22318;SDS011;11327;52.334;9.506;2022-12-05T01:42:38;63.52;;;27.75;;
22318;SDS011;11327;52.334;9.506;2022-12-05T01:45:59;64.35;;;28.17;;
22318;SDS011;11327;52.334;9.506;2022-12-05T01:52:48;53.63;;;25.68;;
22318;SDS011;11327;52.334;9.506;2022-12-05T01:56:10;62.43;;;26.33;;
22318;SDS011;11327;52.334;9.506;2022-12-05T01:59:33;58.95;;;27.00;;
22318;SDS011;11327;52.334;9.506;2022-12-05T02:02:58;62.15;;;26.95;;
22318;SDS011;11327;52.334;9.506;2022-12-05T02:06:20;59.40;;;26.82;;
22318;SDS011;11327;52.334;9.506;2022-12-05T02:09:42;60.38;;;27.77;;
22318;SDS011;11327;52.334;9.506;2022-12-05T02:13:47;58.92;;;26.50;;
22318;SDS011;11327;52.334;9.506;2022-12-05T02:20:14;60.20;;;26.27;;
22318;SDS011;11327;52.334;9.506;2022-12-05T02:35:28;56.75;;;25.77;;
22318;SDS011;11327;52.334;9.506;2022-12-05T02:38:11;52.75;;;25.35;;
22318;SDS011;11327;52.334;9.506;2022-12-05T02:41:37;49.30;;;24.67;;
22318;SDS011;11327;52.334;9.506;2022-12-05T02:45:11;55.30;;;25.72;;
22318;SDS011;11327;52.334;9.506;2022-12-05T02:48:34;56.02;;;24.90;;
22318;SDS011;11327;52.334;9.506;2022-12-05T02:51:58;52.58;;;24.40;;
22318;SDS011;11327;52.334;9.506;2022-12-05T02:55:21;55.20;;;25.55;;
22318;SDS011;11327;52.334;9.506;2022-12-05T02:58:50;50.30;;;23.52;;
22318;SDS011;11327;52.334;9.506;2022-12-05T03:03:14;54.00;;;24.98;;
22318;SDS011;11327;52.334;9.506;2022-12-05T03:09:22;53.65;;;24.00;;
22318;SDS011;11327;52.334;9.506;2022-12-05T03:12:47;50.33;;;23.90;;
22318;SDS011;11327;52.334;9.506;2022-12-05T03:16:17;51.53;;;23.75;;
22318;SDS011;11327;52.334;9.506;2022-12-05T03:23:35;48.58;;;23.20;;
22318;SDS011;11327;52.334;9.506;2022-12-05T03:30:34;44.77;;;22.13;;
22318;SDS011;11327;52.334;9.506;2022-12-05T03:33:58;44.18;;;20.95;;
22318;SDS011;11327;52.334;9.506;2022-12-05T03:44:58;48.87;;;22.30;;
22318;SDS011;11327;52.334;9.506;2022-12-05T03:48:26;49.20;;;22.85;;
22318;SDS011;11327;52.334;9.506;2022-12-05T03:51:53;43.15;;;20.97;;
22318;SDS011;11327;52.334;9.506;2022-12-05T03:55:19;44.53;;;22.17;;
22318;SDS011;11327;52.334;9.506;2022-12-05T03:58:53;46.53;;;22.48;;
22318;SDS011;11327;52.334;9.506;2022-12-05T04:02:17;44.25;;;22.27;;
22318;SDS011;11327;52.334;9.506;2022-12-05T04:05:50;45.38;;;21.95;;
22318;SDS011;11327;52.334;9.506;2022-12-05T04:09:20;40.95;;;20.10;;
22318;SDS011;11327;52.334;9.506;2022-12-05T04:12:43;44.10;;;21.57;;
22318;SDS011;11327;52.334;9.506;2022-12-05T04:23:53;43.63;;;21.30;;
22318;SDS011;11327;52.334;9.506;2022-12-05T04:34:36;44.42;;;21.37;;
22318;SDS011;11327;52.334;9.506;2022-12-05T04:38:04;41.23;;;20.27;;
22318;SDS011;11327;52.334;9.506;2022-12-05T04:41:32;43.40;;;21.77;;
22318;SDS011;11327;52.334;9.506;2022-12-05T04:44:59;39.00;;;19.90;;
22318;SDS011;11327;52.334;9.506;2022-12-05T04:48:22;40.17;;;20.57;;
22318;SDS011;11327;52.334;9.506;2022-12-05T04:51:47;38.63;;;19.40;;
22318;SDS011;11327;52.334;9.506;2022-12-05T04:55:11;43.92;;;21.12;;
22318;SDS011;11327;52.334;9.506;2022-12-05T04:58:34;41.33;;;20.23;;
22318;SDS011;11327;52.334;9.506;2022-12-05T05:01:56;43.17;;;20.30;;
22318;SDS011;11327;52.334;9.506;2022-12-05T05:05:20;36.93;;;19.60;;
22318;SDS011;11327;52.334;9.506;2022-12-05T05:08:49;39.45;;;19.27;;
22318;SDS011;11327;52.334;9.506;2022-12-05T05:12:11;34.60;;;19.05;;
22318;SDS011;11327;52.334;9.506;2022-12-05T05:15:33;38.33;;;19.27;;
22318;SDS011;11327;52.334;9.506;2022-12-05T05:18:54;38.55;;;19.10;;
22318;SDS011;11327;52.334;9.506;2022-12-05T05:22:15;42.27;;;18.87;;
22318;SDS011;11327;52.334;9.506;2022-12-05T05:25:36;37.23;;;18.32;;
22318;SDS011;11327;52.334;9.506;2022-12-05T05:28:57;35.63;;;17.82;;
22318;SDS011;11327;52.334;9.506;2022-12-05T05:32:18;36.80;;;18.92;;
22318;SDS011;11327;52.334;9.506;2022-12-05T05:35:39;36.35;;;17.62;;
22318;SDS011;11327;52.334;9.506;2022-12-05T05:39:01;34.88;;;18.50;;
22318;SDS011;11327;52.334;9.506;2022-12-05T05:42:23;33.40;;;18.02;;
22318;SDS011;11327;52.334;9.506;2022-12-05T05:45:44;33.90;;;18.37;;
22318;SDS011;11327;52.334;9.506;2022-12-05T05:49:05;34.65;;;17.57;;
22318;SDS011;11327;52.334;9.506;2022-12-05T05:52:26;31.85;;;17.25;;
22318;SDS011;11327;52.334;9.506;2022-12-05T05:55:47;36.33;;;18.25;;
22318;SDS011;11327;52.334;9.506;2022-12-05T05:59:08;36.20;;;19.00;;
22318;SDS011;11327;52.334;9.506;2022-12-05T06:02:33;36.50;;;18.62;;
22318;SDS011;11327;52.334;9.506;2022-12-05T06:05:57;32.60;;;17.10;;
22318;SDS011;11327;52.334;9.506;2022-12-05T06:09:19;30.77;;;16.87;;
22318;SDS011;11327;52.334;9.506;2022-12-05T06:12:39;33.95;;;17.90;;
22318;SDS011;11327;52.334;9.506;2022-12-05T06:16:00;33.53;;;17.82;;
22318;SDS011;11327;52.334;9.506;2022-12-05T06:19:21;31.25;;;17.10;;
22318;SDS011;11327;52.334;9.506;2022-12-05T06:22:42;34.38;;;18.00;;
22318;SDS011;11327;52.334;9.506;2022-12-05T06:26:04;33.63;;;17.42;;
22318;SDS011;11327;52.334;9.506;2022-12-05T06:29:26;30.32;;;16.57;;
22318;SDS011;11327;52.334;9.506;2022-12-05T06:32:46;32.58;;;16.95;;
22318;SDS011;11327;52.334;9.506;2022-12-05T06:36:09;31.33;;;17.07;;
22318;SDS011;11327;52.334;9.506;2022-12-05T06:39:31;29.95;;;16.48;;
22318;SDS011;11327;52.334;9.506;2022-12-05T06:42:52;29.15;;;16.10;;
22318;SDS011;11327;52.334;9.506;2022-12-05T06:46:13;33.35;;;17.10;;
22318;SDS011;11327;52.334;9.506;2022-12-05T06:49:36;30.52;;;16.27;;
22318;SDS011;11327;52.334;9.506;2022-12-05T06:52:57;31.00;;;17.00;;
22318;SDS011;11327;52.334;9.506;2022-12-05T06:56:18;31.25;;;16.70;;
22318;SDS011;11327;52.334;9.506;2022-12-05T06:59:40;30.12;;;15.50;;
22318;SDS011;11327;52.334;9.506;2022-12-05T07:03:01;29.10;;;16.97;;
22318;SDS011;11327;52.334;9.506;2022-12-05T07:06:21;30.15;;;16.85;;
22318;SDS011;11327;52.334;9.506;2022-12-05T07:09:43;28.52;;;16.25;;
22318;SDS011;11327;52.334;9.506;2022-12-05T07:13:08;28.73;;;15.90;;
22318;SDS011;11327;52.334;9.506;2022-12-05T07:16:29;28.80;;;16.67;;
22318;SDS011;11327;52.334;9.506;2022-12-05T07:19:51;28.85;;;15.95;;
22318;SDS011;11327;52.334;9.506;2022-12-05T07:23:13;28.47;;;16.50;;
22318;SDS011;11327;52.334;9.506;2022-12-05T07:26:33;30.95;;;15.75;;
22318;SDS011;11327;52.334;9.506;2022-12-05T07:29:55;28.35;;;15.72;;
22318;SDS011;11327;52.334;9.506;2022-12-05T07:33:16;26.68;;;15.20;;
22318;SDS011;11327;52.334;9.506;2022-12-05T07:36:36;28.77;;;15.68;;
22318;SDS011;11327;52.334;9.506;2022-12-05T07:39:58;25.92;;;14.65;;
22318;SDS011;11327;52.334;9.506;2022-12-05T07:43:18;27.30;;;15.68;;
22318;SDS011;11327;52.334;9.506;2022-12-05T07:46:40;26.35;;;15.28;;
22318;SDS011;11327;52.334;9.506;2022-12-05T07:50:01;25.92;;;15.23;;
22318;SDS011;11327;52.334;9.506;2022-12-05T07:53:22;24.72;;;14.55;;
22318;SDS011;11327;52.334;9.506;2022-12-05T07:56:42;21.73;;;13.28;;
22318;SDS011;11327;52.334;9.506;2022-12-05T08:00:04;26.57;;;14.93;;
22318;SDS011;11327;52.334;9.506;2022-12-05T08:03:26;23.38;;;14.00;;
22318;SDS011;11327;52.334;9.506;2022-12-05T08:06:47;25.45;;;14.23;;
22318;SDS011;11327;52.334;9.506;2022-12-05T08:10:08;23.05;;;14.10;;
22318;SDS011;11327;52.334;9.506;2022-12-05T08:13:29;23.22;;;14.40;;
22318;SDS011;11327;52.334;9.506;2022-12-05T08:16:50;22.27;;;13.58;;
22318;SDS011;11327;52.334;9.506;2022-12-05T08:20:11;21.10;;;13.10;;
22318;SDS011;11327;52.334;9.506;2022-12-05T08:23:32;22.45;;;13.80;;
22318;SDS011;11327;52.334;9.506;2022-12-05T08:26:54;23.25;;;14.07;;
22318;SDS011;11327;52.334;9.506;2022-12-05T08:30:15;21.75;;;13.22;;
22318;SDS011;11327;52.334;9.506;2022-12-05T08:33:36;22.10;;;13.78;;
22318;SDS011;11327;52.334;9.506;2022-12-05T08:36:58;23.20;;;14.05;;
22318;SDS011;11327;52.334;9.506;2022-12-05T08:40:19;22.55;;;14.25;;
22318;SDS011;11327;52.334;9.506;2022-12-05T08:43:40;20.65;;;13.65;;
22318;SDS011;11327;52.334;9.506;2022-12-05T08:47:01;21.85;;;13.35;;
22318;SDS011;11327;52.334;9.506;2022-12-05T08:50:22;20.55;;;12.88;;
22318;SDS011;11327;52.334;9.506;2022-12-05T08:53:43;25.02;;;14.13;;
22318;SDS011;11327;52.334;9.506;2022-12-05T08:57:04;23.52;;;13.83;;
22318;SDS011;11327;52.334;9.506;2022-12-05T09:00:25;21.40;;;13.35;;
22318;SDS011;11327;52.334;9.506;2022-12-05T09:03:46;22.15;;;14.07;;
22318;SDS011;11327;52.334;9.506;2022-12-05T09:07:07;22.10;;;13.43;;
22318;SDS011;11327;52.334;9.506;2022-12-05T09:10:28;21.93;;;13.48;;
22318;SDS011;11327;52.334;9.506;2022-12-05T09:13:50;23.57;;;14.30;;
22318;SDS011;11327;52.334;9.506;2022-12-05T09:17:13;23.27;;;13.62;;
22318;SDS011;11327;52.334;9.506;2022-12-05T09:20:34;20.50;;;13.88;;
22318;SDS011;11327;52.334;9.506;2022-12-05T09:23:57;20.65;;;13.15;;
22318;SDS011;11327;52.334;9.506;2022-12-05T09:27:19;21.50;;;13.28;;
22318;SDS011;11327;52.334;9.506;2022-12-05T09:30:40;21.75;;;13.62;;
22318;SDS011;11327;52.334;9.506;2022-12-05T09:34:00;20.43;;;13.13;;
22318;SDS011;11327;52.334;9.506;2022-12-05T09:37:21;26.10;;;15.28;;
22318;SDS011;11327;52.334;9.506;2022-12-05T09:40:43;23.98;;;13.90;;
22318;SDS011;11327;52.334;9.506;2022-12-05T09:44:04;23.50;;;13.83;;
22318;SDS011;11327;52.334;9.506;2022-12-05T09:47:33;23.83;;;14.55;;
22318;SDS011;11327;52.334;9.506;2022-12-05T09:51:01;22.87;;;13.98;;
22318;SDS011;11327;52.334;9.506;2022-12-05T09:54:20;25.17;;;14.45;;
22318;SDS011;11327;52.334;9.506;2022-12-05T09:57:50;22.93;;;14.23;;
22318;SDS011;11327;52.334;9.506;2022-12-05T10:01:31;23.42;;;14.13;;
22318;SDS011;11327;52.334;9.506;2022-12-05T10:05:07;21.50;;;13.53;;
22318;SDS011;11327;52.334;9.506;2022-12-05T10:08:37;22.25;;;13.58;;
22318;SDS011;11327;52.334;9.506;2022-12-05T10:15:58;23.02;;;13.80;;
22318;SDS011;11327;52.334;9.506;2022-12-05T10:19:23;21.85;;;13.80;;
22318;SDS011;11327;52.334;9.506;2022-12-05T10:22:59;18.80;;;12.30;;
22318;SDS011;11327;52.334;9.506;2022-12-05T10:26:24;21.52;;;13.22;;
22318;SDS011;11327;52.334;9.506;2022-12-05T10:30:03;21.48;;;13.98;;
22318;SDS011;11327;52.334;9.506;2022-12-05T10:33:27;21.82;;;13.88;;
22318;SDS011;11327;52.334;9.506;2022-12-05T10:36:56;23.40;;;14.60;;
22318;SDS011;11327;52.334;9.506;2022-12-05T10:40:16;24.55;;;14.95;;
22318;SDS011;11327;52.334;9.506;2022-12-05T10:43:39;20.65;;;13.55;;
22318;SDS011;11327;52.334;9.506;2022-12-05T10:47:02;21.75;;;13.60;;
22318;SDS011;11327;52.334;9.506;2022-12-05T10:50:25;20.92;;;13.58;;
22318;SDS011;11327;52.334;9.506;2022-12-05T10:53:51;21.37;;;13.85;;
22318;SDS011;11327;52.334;9.506;2022-12-05T10:57:24;23.38;;;14.13;;
22318;SDS011;11327;52.334;9.506;2022-12-05T11:00:47;20.50;;;13.43;;
22318;SDS011;11327;52.334;9.506;2022-12-05T11:04:18;22.42;;;13.65;;
22318;SDS011;11327;52.334;9.506;2022-12-05T11:18:35;21.33;;;13.28;;
22318;SDS011;11327;52.334;9.506;2022-12-05T11:21:53;21.57;;;13.75;;
22318;SDS011;11327;52.334;9.506;2022-12-05T11:25:33;20.95;;;13.15;;
22318;SDS011;11327;52.334;9.506;2022-12-05T11:28:55;19.48;;;12.58;;
22318;SDS011;11327;52.334;9.506;2022-12-05T11:32:21;20.62;;;13.05;;
22318;SDS011;11327;52.334;9.506;2022-12-05T11:35:43;17.92;;;11.95;;
22318;SDS011;11327;52.334;9.506;2022-12-05T11:39:07;17.77;;;11.73;;
22318;SDS011;11327;52.334;9.506;2022-12-05T12:26:19;15.90;;;10.78;;
22318;SDS011;11327;52.334;9.506;2022-12-05T12:33:27;15.50;;;10.30;;
22318;SDS011;11327;52.334;9.506;2022-12-05T12:37:12;14.93;;;10.20;;
22318;SDS011;11327;52.334;9.506;2022-12-05T12:52:14;14.20;;;9.90;;
22318;SDS011;11327;52.334;9.506;2022-12-05T12:55:21;13.93;;;10.10;;
22318;SDS011;11327;52.334;9.506;2022-12-05T12:59:33;15.78;;;10.50;;
22318;SDS011;11327;52.334;9.506;2022-12-05T13:05:44;15.05;;;10.30;;
22318;SDS011;11327;52.334;9.506;2022-12-05T13:09:13;15.00;;;9.68;;
22318;SDS011;11327;52.334;9.506;2022-12-05T13:12:41;16.85;;;10.38;;
22318;SDS011;11327;52.334;9.506;2022-12-05T13:16:04;14.68;;;9.63;;
22318;SDS011;11327;52.334;9.506;2022-12-05T13:19:42;14.10;;;9.43;;
22318;SDS011;11327;52.334;9.506;2022-12-05T13:23:12;15.13;;;9.50;;
22318;SDS011;11327;52.334;9.506;2022-12-05T13:26:44;20.68;;;11.53;;
22318;SDS011;11327;52.334;9.506;2022-12-05T13:30:06;17.48;;;11.20;;
22318;SDS011;11327;52.334;9.506;2022-12-05T13:33:35;17.15;;;10.88;;
22318;SDS011;11327;52.334;9.506;2022-12-05T13:37:08;14.53;;;9.80;;
22318;SDS011;11327;52.334;9.506;2022-12-05T13:40:50;15.93;;;10.15;;
22318;SDS011;11327;52.334;9.506;2022-12-05T13:44:33;13.53;;;9.48;;
22318;SDS011;11327;52.334;9.506;2022-12-05T13:51:27;14.90;;;9.43;;
22318;SDS011;11327;52.334;9.506;2022-12-05T13:55:01;15.13;;;9.98;;
22318;SDS011;11327;52.334;9.506;2022-12-05T13:58:36;13.53;;;10.10;;
22318;SDS011;11327;52.334;9.506;2022-12-05T14:06:06;15.53;;;10.23;;
22318;SDS011;11327;52.334;9.506;2022-12-05T14:09:28;17.12;;;10.90;;
22318;SDS011;11327;52.334;9.506;2022-12-05T14:12:55;15.78;;;10.25;;
22318;SDS011;11327;52.334;9.506;2022-12-05T14:20:09;14.35;;;10.03;;
22318;SDS011;11327;52.334;9.506;2022-12-05T14:30:34;18.92;;;11.22;;
22318;SDS011;11327;52.334;9.506;2022-12-05T14:34:04;15.03;;;10.45;;
22318;SDS011;11327;52.334;9.506;2022-12-05T14:40:56;18.80;;;12.07;;
22318;SDS011;11327;52.334;9.506;2022-12-05T14:44:19;18.32;;;12.05;;
22318;SDS011;11327;52.334;9.506;2022-12-05T14:47:47;17.82;;;11.88;;
22318;SDS011;11327;52.334;9.506;2022-12-05T14:54:52;20.55;;;13.78;;
22318;SDS011;11327;52.334;9.506;2022-12-05T14:58:17;18.55;;;12.03;;
22318;SDS011;11327;52.334;9.506;2022-12-05T15:08:49;19.00;;;12.82;;
22318;SDS011;11327;52.334;9.506;2022-12-05T15:12:19;18.75;;;12.23;;
22318;SDS011;11327;52.334;9.506;2022-12-05T15:15:54;18.15;;;12.03;;
22318;SDS011;11327;52.334;9.506;2022-12-05T15:19:44;16.82;;;11.18;;
22318;SDS011;11327;52.334;9.506;2022-12-05T15:22:49;18.20;;;12.18;;
22318;SDS011;11327;52.334;9.506;2022-12-05T15:26:17;16.35;;;10.85;;
22318;SDS011;11327;52.334;9.506;2022-12-05T15:29:58;17.92;;;11.25;;
22318;SDS011;11327;52.334;9.506;2022-12-05T15:33:19;16.12;;;10.55;;
22318;SDS011;11327;52.334;9.506;2022-12-05T15:36:42;15.63;;;10.35;;
22318;SDS011;11327;52.334;9.506;2022-12-05T15:40:16;17.00;;;10.60;;
22318;SDS011;11327;52.334;9.506;2022-12-05T15:43:39;16.55;;;10.45;;
22318;SDS011;11327;52.334;9.506;2022-12-05T15:47:00;16.77;;;11.12;;
22318;SDS011;11327;52.334;9.506;2022-12-05T15:54:04;17.52;;;11.40;;
22318;SDS011;11327;52.334;9.506;2022-12-05T15:57:33;19.23;;;12.53;;
22318;SDS011;11327;52.334;9.506;2022-12-05T16:00:56;18.35;;;12.88;;
22318;SDS011;11327;52.334;9.506;2022-12-05T16:04:41;21.02;;;13.88;;
22318;SDS011;11327;52.334;9.506;2022-12-05T16:08:08;20.72;;;13.68;;
22318;SDS011;11327;52.334;9.506;2022-12-05T16:11:29;20.10;;;13.13;;
22318;SDS011;11327;52.334;9.506;2022-12-05T16:14:51;21.75;;;13.15;;
22318;SDS011;11327;52.334;9.506;2022-12-05T16:18:25;17.65;;;11.68;;
22318;SDS011;11327;52.334;9.506;2022-12-05T16:21:45;17.73;;;11.35;;
22318;SDS011;11327;52.334;9.506;2022-12-05T16:25:17;16.60;;;11.38;;
22318;SDS011;11327;52.334;9.506;2022-12-05T16:28:37;17.00;;;11.18;;
22318;SDS011;11327;52.334;9.506;2022-12-05T16:32:02;15.83;;;10.65;;
22318;SDS011;11327;52.334;9.506;2022-12-05T16:39:00;16.40;;;10.98;;
22318;SDS011;11327;52.334;9.506;2022-12-05T16:42:29;18.00;;;12.18;;
22318;SDS011;11327;52.334;9.506;2022-12-05T16:45:50;21.02;;;13.70;;
22318;SDS011;11327;52.334;9.506;2022-12-05T16:52:40;20.40;;;13.68;;
22318;SDS011;11327;52.334;9.506;2022-12-05T16:56:02;21.17;;;14.60;;
22318;SDS011;11327;52.334;9.506;2022-12-05T16:59:34;21.87;;;14.87;;
22318;SDS011;11327;52.334;9.506;2022-12-05T17:02:54;20.00;;;13.68;;
22318;SDS011;11327;52.334;9.506;2022-12-05T17:06:15;20.37;;;14.00;;
22318;SDS011;11327;52.334;9.506;2022-12-05T17:13:02;22.00;;;14.47;;
22318;SDS011;11327;52.334;9.506;2022-12-05T17:16:23;19.60;;;13.50;;
22318;SDS011;11327;52.334;9.506;2022-12-05T17:19:46;18.67;;;13.08;;
22318;SDS011;11327;52.334;9.506;2022-12-05T17:23:13;22.82;;;15.38;;
22318;SDS011;11327;52.334;9.506;2022-12-05T17:26:34;24.77;;;16.48;;
22318;SDS011;11327;52.334;9.506;2022-12-05T17:29:55;22.32;;;15.03;;
22318;SDS011;11327;52.334;9.506;2022-12-05T17:33:17;20.37;;;14.18;;
22318;SDS011;11327;52.334;9.506;2022-12-05T17:36:39;21.97;;;14.33;;
22318;SDS011;11327;52.334;9.506;2022-12-05T17:40:00;21.62;;;13.32;;
22318;SDS011;11327;52.334;9.506;2022-12-05T17:43:21;24.60;;;15.80;;
22318;SDS011;11327;52.334;9.506;2022-12-05T17:46:42;26.95;;;17.07;;
22318;SDS011;11327;52.334;9.506;2022-12-05T17:50:04;28.05;;;17.55;;
22318;SDS011;11327;52.334;9.506;2022-12-05T17:53:26;26.73;;;17.52;;
22318;SDS011;11327;52.334;9.506;2022-12-05T17:56:47;25.85;;;16.75;;
22318;SDS011;11327;52.334;9.506;2022-12-05T18:00:12;26.93;;;16.20;;
22318;SDS011;11327;52.334;9.506;2022-12-05T18:03:34;25.10;;;15.10;;
22318;SDS011;11327;52.334;9.506;2022-12-05T18:06:55;24.40;;;15.50;;
22318;SDS011;11327;52.334;9.506;2022-12-05T18:10:20;22.25;;;13.98;;
22318;SDS011;11327;52.334;9.506;2022-12-05T18:13:42;22.07;;;14.40;;
22318;SDS011;11327;52.334;9.506;2022-12-05T18:17:03;22.80;;;15.48;;
22318;SDS011;11327;52.334;9.506;2022-12-05T18:20:25;26.20;;;15.75;;
22318;SDS011;11327;52.334;9.506;2022-12-05T18:23:46;27.67;;;16.17;;
22318;SDS011;11327;52.334;9.506;2022-12-05T18:27:08;26.07;;;15.35;;
22318;SDS011;11327;52.334;9.506;2022-12-05T18:30:30;27.87;;;16.70;;
22318;SDS011;11327;52.334;9.506;2022-12-05T18:33:51;28.47;;;17.10;;
22318;SDS011;11327;52.334;9.506;2022-12-05T18:37:13;25.10;;;15.28;;
22318;SDS011;11327;52.334;9.506;2022-12-05T18:40:35;24.77;;;14.95;;
22318;SDS011;11327;52.334;9.506;2022-12-05T18:43:56;25.97;;;14.93;;
22318;SDS011;11327;52.334;9.506;2022-12-05T18:47:17;24.85;;;14.93;;
22318;SDS011;11327;52.334;9.506;2022-12-05T18:50:39;26.82;;;15.65;;
22318;SDS011;11327;52.334;9.506;2022-12-05T18:54:00;24.80;;;14.20;;
22318;SDS011;11327;52.334;9.506;2022-12-05T18:57:21;22.80;;;14.35;;
22318;SDS011;11327;52.334;9.506;2022-12-05T19:00:44;21.45;;;13.22;;
22318;SDS011;11327;52.334;9.506;2022-12-05T19:04:05;25.02;;;14.18;;
22318;SDS011;11327;52.334;9.506;2022-12-05T19:07:28;22.82;;;13.48;;
22318;SDS011;11327;52.334;9.506;2022-12-05T19:10:49;22.58;;;13.30;;
22318;SDS011;11327;52.334;9.506;2022-12-05T19:14:10;26.75;;;15.38;;
22318;SDS011;11327;52.334;9.506;2022-12-05T19:17:31;24.72;;;15.18;;
22318;SDS011;11327;52.334;9.506;2022-12-05T19:20:53;24.85;;;15.75;;
22318;SDS011;11327;52.334;9.506;2022-12-05T19:24:15;27.77;;;16.80;;
22318;SDS011;11327;52.334;9.506;2022-12-05T19:27:37;26.05;;;16.00;;
22318;SDS011;11327;52.334;9.506;2022-12-05T19:30:59;25.52;;;16.05;;
22318;SDS011;11327;52.334;9.506;2022-12-05T19:34:24;25.85;;;15.75;;
22318;SDS011;11327;52.334;9.506;2022-12-05T19:37:45;26.35;;;15.53;;
22318;SDS011;11327;52.334;9.506;2022-12-05T19:41:07;26.57;;;14.95;;
22318;SDS011;11327;52.334;9.506;2022-12-05T19:44:29;26.87;;;15.40;;
22318;SDS011;11327;52.334;9.506;2022-12-05T19:47:50;26.15;;;15.38;;
22318;SDS011;11327;52.334;9.506;2022-12-05T19:51:11;26.37;;;15.50;;
22318;SDS011;11327;52.334;9.506;2022-12-05T19:54:33;19.92;;;12.53;;
22318;SDS011;11327;52.334;9.506;2022-12-05T19:57:54;18.23;;;11.90;;
22318;SDS011;11327;52.334;9.506;2022-12-05T20:01:15;19.15;;;11.90;;
22318;SDS011;11327;52.334;9.506;2022-12-05T20:04:41;18.48;;;11.60;;
22318;SDS011;11327;52.334;9.506;2022-12-05T20:08:02;19.92;;;12.50;;
22318;SDS011;11327;52.334;9.506;2022-12-05T20:11:24;21.80;;;13.28;;
22318;SDS011;11327;52.334;9.506;2022-12-05T20:14:45;21.17;;;13.65;;
22318;SDS011;11327;52.334;9.506;2022-12-05T20:18:06;20.95;;;13.13;;
22318;SDS011;11327;52.334;9.506;2022-12-05T20:21:29;19.57;;;11.48;;
22318;SDS011;11327;52.334;9.506;2022-12-05T20:24:51;20.68;;;12.73;;
22318;SDS011;11327;52.334;9.506;2022-12-05T20:28:12;24.32;;;13.70;;
22318;SDS011;11327;52.334;9.506;2022-12-05T20:31:40;21.68;;;12.78;;
22318;SDS011;11327;52.334;9.506;2022-12-05T20:34:58;22.13;;;13.83;;
22318;SDS011;11327;52.334;9.506;2022-12-05T20:38:19;18.95;;;11.90;;
22318;SDS011;11327;52.334;9.506;2022-12-05T20:41:40;19.95;;;11.53;;
22318;SDS011;11327;52.334;9.506;2022-12-05T20:45:01;20.70;;;11.33;;
22318;SDS011;11327;52.334;9.506;2022-12-05T20:48:23;19.45;;;12.25;;
22318;SDS011;11327;52.334;9.506;2022-12-05T20:51:45;20.17;;;12.28;;
22318;SDS011;11327;52.334;9.506;2022-12-05T20:55:07;19.32;;;12.30;;
22318;SDS011;11327;52.334;9.506;2022-12-05T20:58:28;20.45;;;12.10;;
22318;SDS011;11327;52.334;9.506;2022-12-05T21:01:49;18.23;;;11.53;;
22318;SDS011;11327;52.334;9.506;2022-12-05T21:05:10;17.45;;;11.43;;
22318;SDS011;11327;52.334;9.506;2022-12-05T21:08:32;20.02;;;12.25;;
22318;SDS011;11327;52.334;9.506;2022-12-05T21:11:53;22.22;;;13.13;;
22318;SDS011;11327;52.334;9.506;2022-12-05T21:15:14;20.88;;;13.18;;
22318;SDS011;11327;52.334;9.506;2022-12-05T21:18:35;22.13;;;13.43;;
22318;SDS011;11327;52.334;9.506;2022-12-05T21:21:57;24.18;;;13.83;;
22318;SDS011;11327;52.334;9.506;2022-12-05T21:25:18;21.30;;;13.45;;
22318;SDS011;11327;52.334;9.506;2022-12-05T21:28:39;25.95;;;14.87;;
22318;SDS011;11327;52.334;9.506;2022-12-05T21:32:01;22.10;;;13.90;;
22318;SDS011;11327;52.334;9.506;2022-12-05T21:35:22;20.57;;;13.30;;
22318;SDS011;11327;52.334;9.506;2022-12-05T21:38:43;19.73;;;12.33;;
22318;SDS011;11327;52.334;9.506;2022-12-05T21:42:04;18.23;;;11.85;;
22318;SDS011;11327;52.334;9.506;2022-12-05T21:45:25;16.15;;;10.95;;
22318;SDS011;11327;52.334;9.506;2022-12-05T21:48:46;16.32;;;10.63;;
22318;SDS011;11327;52.334;9.506;2022-12-05T21:52:07;17.50;;;11.35;;
22318;SDS011;11327;52.334;9.506;2022-12-05T21:55:28;16.25;;;11.12;;
22318;SDS011;11327;52.334;9.506;2022-12-05T21:58:49;15.50;;;10.68;;
22318;SDS011;11327;52.334;9.506;2022-12-05T22:02:11;16.80;;;11.85;;
22318;SDS011;11327;52.334;9.506;2022-12-05T22:05:32;17.67;;;11.83;;
22318;SDS011;11327;52.334;9.506;2022-12-05T22:08:53;17.12;;;11.85;;
22318;SDS011;11327;52.334;9.506;2022-12-05T22:12:15;20.23;;;13.40;;
22318;SDS011;11327;52.334;9.506;2022-12-05T22:15:36;17.15;;;12.18;;
22318;SDS011;11327;52.334;9.506;2022-12-05T22:18:56;18.48;;;12.45;;
22318;SDS011;11327;52.334;9.506;2022-12-05T22:22:17;18.98;;;12.63;;
22318;SDS011;11327;52.334;9.506;2022-12-05T22:25:38;19.00;;;12.63;;
22318;SDS011;11327;52.334;9.506;2022-12-05T22:28:59;16.45;;;11.85;;
22318;SDS011;11327;52.334;9.506;2022-12-05T22:32:20;18.75;;;12.03;;
22318;SDS011;11327;52.334;9.506;2022-12-05T22:35:41;16.15;;;11.20;;
22318;SDS011;11327;52.334;9.506;2022-12-05T22:39:02;18.40;;;12.65;;
22318;SDS011;11327;52.334;9.506;2022-12-05T22:42:24;16.95;;;11.48;;
22318;SDS011;11327;52.334;9.506;2022-12-05T22:45:46;17.60;;;12.10;;